sensor_id;sensor_type;location;lat;lon;timestamp;P1;durP1;ratioP1;P2;durP2;ratioP2
4001;SDS011;2015;48.670;9.060;2022-07-23T00:01:30;8.20;;;7.40;;
4001;SDS011;2015;48.670;9.060;2022-07-23T00:04:02;8.87;;;8.27;;
4001;SDS011;2015;48.670;9.060;2022-07-23T00:06:34;8.47;;;7.87;;
4001;SDS011;2015;48.670;9.060;2022-07-23T00:09:05;7.60;;;7.10;;
4001;SDS011;2015;48.670;9.060;2022-07-23T00:11:37;6.83;;;6.33;;
4001;SDS011;2015;48.670;9.060;2022-07-23T00:14:09;6.90;;;6.30;;
4001;SDS011;2015;48.670;9.060;2022-07-23T00:16:41;6.70;;;6.20;;
4001;SDS011;2015;48.670;9.060;2022-07-23T00:19:13;6.50;;;6.03;;
4001;SDS011;2015;48.670;9.060;2022-07-23T00:21:45;6.53;;;5.97;;
4001;SDS011;2015;48.670;9.060;2022-07-23T00:24:16;6.27;;;5.87;;
4001;SDS011;2015;48.670;9.060;2022-07-23T00:26:48;6.20;;;5.70;;
4001;SDS011;2015;48.670;9.060;2022-07-23T00:29:20;7.77;;;7.07;;
4001;SDS011;2015;48.670;9.060;2022-07-23T00:31:51;6.03;;;5.63;;
4001;SDS011;2015;48.670;9.060;2022-07-23T00:34:23;6.77;;;6.27;;
4001;SDS011;2015;48.670;9.060;2022-07-23T00:36:55;7.10;;;6.60;;
4001;SDS011;2015;48.670;9.060;2022-07-23T00:39:27;6.87;;;6.40;;
4001;SDS011;2015;48.670;9.060;2022-07-23T00:41:59;7.70;;;7.00;;
4001;SDS011;2015;48.670;9.060;2022-07-23T00:44:30;7.37;;;6.67;;
4001;SDS011;2015;48.670;9.060;2022-07-23T00:47:02;6.67;;;6.20;;
4001;SDS011;2015;48.670;9.060;2022-07-23T00:49:36;7.70;;;7.07;;
4001;SDS011;2015;48.670;9.060;2022-07-23T00:52:07;6.90;;;6.40;;
4001;SDS011;2015;48.670;9.060;2022-07-23T00:54:39;6.07;;;5.67;;
4001;SDS011;2015;48.670;9.060;2022-07-23T00:57:11;6.63;;;6.13;;
4001;SDS011;2015;48.670;9.060;2022-07-23T00:59:43;6.87;;;6.27;;
4001;SDS011;2015;48.670;9.060;2022-07-23T01:02:15;7.60;;;6.40;;
4001;SDS011;2015;48.670;9.060;2022-07-23T01:04:47;7.60;;;7.10;;
4001;SDS011;2015;48.670;9.060;2022-07-23T01:07:19;6.70;;;6.13;;
4001;SDS011;2015;48.670;9.060;2022-07-23T01:09:51;6.70;;;6.20;;
4001;SDS011;2015;48.670;9.060;2022-07-23T01:12:23;6.50;;;6.00;;
4001;SDS011;2015;48.670;9.060;2022-07-23T01:14:55;6.23;;;5.73;;
4001;SDS011;2015;48.670;9.060;2022-07-23T01:17:31;7.03;;;6.50;;
4001;SDS011;2015;48.670;9.060;2022-07-23T01:20:03;5.87;;;5.47;;
4001;SDS011;2015;48.670;9.060;2022-07-23T01:22:35;7.25;;;6.55;;
4001;SDS011;2015;48.670;9.060;2022-07-23T01:25:07;6.77;;;6.27;;
4001;SDS011;2015;48.670;9.060;2022-07-23T01:27:40;7.37;;;6.57;;
4001;SDS011;2015;48.670;9.060;2022-07-23T01:30:12;6.53;;;5.87;;
4001;SDS011;2015;48.670;9.060;2022-07-23T01:32:44;6.60;;;6.00;;
4001;SDS011;2015;48.670;9.060;2022-07-23T01:35:16;8.47;;;7.13;;
4001;SDS011;2015;48.670;9.060;2022-07-23T01:37:48;7.30;;;6.80;;
4001;SDS011;2015;48.670;9.060;2022-07-23T01:40:19;8.20;;;7.40;;
4001;SDS011;2015;48.670;9.060;2022-07-23T01:42:53;7.23;;;6.73;;
4001;SDS011;2015;48.670;9.060;2022-07-23T01:45:25;7.53;;;6.57;;
4001;SDS011;2015;48.670;9.060;2022-07-23T01:47:57;6.57;;;6.10;;
4001;SDS011;2015;48.670;9.060;2022-07-23T01:50:28;6.83;;;6.43;;
4001;SDS011;2015;48.670;9.060;2022-07-23T01:53:00;7.37;;;6.17;;
4001;SDS011;2015;48.670;9.060;2022-07-23T01:55:32;6.97;;;6.43;;
4001;SDS011;2015;48.670;9.060;2022-07-23T01:58:04;6.77;;;6.27;;
4001;SDS011;2015;48.670;9.060;2022-07-23T02:00:36;6.53;;;6.13;;
4001;SDS011;2015;48.670;9.060;2022-07-23T02:03:08;6.10;;;5.70;;
4001;SDS011;2015;48.670;9.060;2022-07-23T02:05:41;7.10;;;6.60;;
4001;SDS011;2015;48.670;9.060;2022-07-23T02:08:12;7.50;;;6.90;;
4001;SDS011;2015;48.670;9.060;2022-07-23T02:10:44;6.37;;;5.83;;
4001;SDS011;2015;48.670;9.060;2022-07-23T02:13:17;8.80;;;6.73;;
4001;SDS011;2015;48.670;9.060;2022-07-23T02:15:50;7.73;;;7.00;;
4001;SDS011;2015;48.670;9.060;2022-07-23T02:18:22;7.13;;;6.63;;
4001;SDS011;2015;48.670;9.060;2022-07-23T02:20:53;7.43;;;6.73;;
4001;SDS011;2015;48.670;9.060;2022-07-23T02:23:25;7.27;;;6.73;;
4001;SDS011;2015;48.670;9.060;2022-07-23T02:25:57;7.13;;;6.60;;
4001;SDS011;2015;48.670;9.060;2022-07-23T02:28:29;8.03;;;7.47;;
4001;SDS011;2015;48.670;9.060;2022-07-23T02:31:01;7.40;;;6.70;;
4001;SDS011;2015;48.670;9.060;2022-07-23T02:33:33;7.90;;;7.30;;
4001;SDS011;2015;48.670;9.060;2022-07-23T02:36:05;7.87;;;7.27;;
4001;SDS011;2015;48.670;9.060;2022-07-23T02:38:37;8.83;;;8.17;;
4001;SDS011;2015;48.670;9.060;2022-07-23T02:41:09;7.40;;;6.90;;
4001;SDS011;2015;48.670;9.060;2022-07-23T02:43:41;8.57;;;7.97;;
4001;SDS011;2015;48.670;9.060;2022-07-23T02:46:12;7.03;;;6.57;;
4001;SDS011;2015;48.670;9.060;2022-07-23T02:48:44;7.23;;;6.63;;
4001;SDS011;2015;48.670;9.060;2022-07-23T02:51:16;7.73;;;7.10;;
4001;SDS011;2015;48.670;9.060;2022-07-23T02:53:48;7.07;;;6.43;;
4001;SDS011;2015;48.670;9.060;2022-07-23T02:56:20;6.78;;;6.20;;
4001;SDS011;2015;48.670;9.060;2022-07-23T02:58:52;7.80;;;7.20;;
4001;SDS011;2015;48.670;9.060;2022-07-23T03:01:24;7.60;;;7.00;;
4001;SDS011;2015;48.670;9.060;2022-07-23T03:03:55;7.90;;;7.30;;
4001;SDS011;2015;48.670;9.060;2022-07-23T03:06:27;7.63;;;7.03;;
4001;SDS011;2015;48.670;9.060;2022-07-23T03:08:59;8.60;;;8.00;;
4001;SDS011;2015;48.670;9.060;2022-07-23T03:11:32;7.97;;;7.33;;
4001;SDS011;2015;48.670;9.060;2022-07-23T03:14:04;7.90;;;7.30;;
4001;SDS011;2015;48.670;9.060;2022-07-23T03:16:35;7.90;;;7.30;;
4001;SDS011;2015;48.670;9.060;2022-07-23T03:19:07;8.77;;;7.97;;
4001;SDS011;2015;48.670;9.060;2022-07-23T03:21:39;7.30;;;6.70;;
4001;SDS011;2015;48.670;9.060;2022-07-23T03:24:12;7.47;;;6.87;;
4001;SDS011;2015;48.670;9.060;2022-07-23T03:26:44;8.10;;;7.40;;
4001;SDS011;2015;48.670;9.060;2022-07-23T03:29:16;9.03;;;7.97;;
4001;SDS011;2015;48.670;9.060;2022-07-23T03:31:48;7.80;;;7.20;;
4001;SDS011;2015;48.670;9.060;2022-07-23T03:34:20;8.10;;;7.40;;
4001;SDS011;2015;48.670;9.060;2022-07-23T03:36:52;7.20;;;6.60;;
4001;SDS011;2015;48.670;9.060;2022-07-23T03:39:24;7.50;;;7.00;;
4001;SDS011;2015;48.670;9.060;2022-07-23T03:41:56;8.07;;;7.00;;
4001;SDS011;2015;48.670;9.060;2022-07-23T03:44:27;6.73;;;6.30;;
4001;SDS011;2015;48.670;9.060;2022-07-23T03:46:59;7.97;;;7.37;;
4001;SDS011;2015;48.670;9.060;2022-07-23T03:49:31;8.20;;;7.40;;
4001;SDS011;2015;48.670;9.060;2022-07-23T03:52:04;8.10;;;7.40;;
4001;SDS011;2015;48.670;9.060;2022-07-23T03:54:36;8.43;;;7.67;;
4001;SDS011;2015;48.670;9.060;2022-07-23T03:57:08;8.73;;;7.93;;
4001;SDS011;2015;48.670;9.060;2022-07-23T03:59:40;9.43;;;8.70;;
4001;SDS011;2015;48.670;9.060;2022-07-23T04:02:12;10.10;;;9.13;;
4001;SDS011;2015;48.670;9.060;2022-07-23T04:04:44;8.27;;;7.70;;
4001;SDS011;2015;48.670;9.060;2022-07-23T04:07:17;7.87;;;7.27;;
4001;SDS011;2015;48.670;9.060;2022-07-23T04:09:49;8.47;;;7.77;;
4001;SDS011;2015;48.670;9.060;2022-07-23T04:12:21;9.60;;;8.80;;
4001;SDS011;2015;48.670;9.060;2022-07-23T04:14:53;8.20;;;7.50;;
4001;SDS011;2015;48.670;9.060;2022-07-23T04:17:25;9.27;;;8.47;;
4001;SDS011;2015;48.670;9.060;2022-07-23T04:19:57;7.57;;;6.87;;
4001;SDS011;2015;48.670;9.060;2022-07-23T04:22:29;7.90;;;7.27;;
4001;SDS011;2015;48.670;9.060;2022-07-23T04:25:01;8.73;;;8.13;;
4001;SDS011;2015;48.670;9.060;2022-07-23T04:27:33;8.33;;;7.60;;
4001;SDS011;2015;48.670;9.060;2022-07-23T04:30:05;9.20;;;7.20;;
4001;SDS011;2015;48.670;9.060;2022-07-23T04:32:37;7.83;;;7.17;;
4001;SDS011;2015;48.670;9.060;2022-07-23T04:35:09;7.20;;;6.70;;
4001;SDS011;2015;48.670;9.060;2022-07-23T04:37:41;7.43;;;6.93;;
4001;SDS011;2015;48.670;9.060;2022-07-23T04:40:13;9.43;;;7.40;;
4001;SDS011;2015;48.670;9.060;2022-07-23T04:42:44;8.20;;;7.60;;
4001;SDS011;2015;48.670;9.060;2022-07-23T04:45:16;8.90;;;8.23;;
4001;SDS011;2015;48.670;9.060;2022-07-23T04:47:49;8.53;;;7.73;;
4001;SDS011;2015;48.670;9.060;2022-07-23T04:50:21;9.33;;;8.53;;
4001;SDS011;2015;48.670;9.060;2022-07-23T04:52:53;8.73;;;8.03;;
4001;SDS011;2015;48.670;9.060;2022-07-23T04:55:25;8.60;;;7.80;;
4001;SDS011;2015;48.670;9.060;2022-07-23T04:57:57;7.70;;;7.00;;
4001;SDS011;2015;48.670;9.060;2022-07-23T05:00:29;9.13;;;8.53;;
4001;SDS011;2015;48.670;9.060;2022-07-23T05:03:01;9.03;;;8.40;;
4001;SDS011;2015;48.670;9.060;2022-07-23T05:05:32;9.17;;;8.47;;
4001;SDS011;2015;48.670;9.060;2022-07-23T05:08:04;8.63;;;7.82;;
4001;SDS011;2015;48.670;9.060;2022-07-23T05:10:36;9.27;;;8.37;;
4001;SDS011;2015;48.670;9.060;2022-07-23T05:13:08;9.17;;;8.40;;
4001;SDS011;2015;48.670;9.060;2022-07-23T05:15:40;8.13;;;7.47;;
4001;SDS011;2015;48.670;9.060;2022-07-23T05:18:12;9.60;;;8.70;;
4001;SDS011;2015;48.670;9.060;2022-07-23T05:20:44;9.00;;;8.30;;
4001;SDS011;2015;48.670;9.060;2022-07-23T05:23:16;9.67;;;8.40;;
4001;SDS011;2015;48.670;9.060;2022-07-23T05:25:47;8.73;;;8.10;;
4001;SDS011;2015;48.670;9.060;2022-07-23T05:28:19;10.20;;;9.40;;
4001;SDS011;2015;48.670;9.060;2022-07-23T05:30:53;9.73;;;8.93;;
4001;SDS011;2015;48.670;9.060;2022-07-23T05:33:25;9.17;;;8.37;;
4001;SDS011;2015;48.670;9.060;2022-07-23T05:36:01;8.60;;;8.00;;
4001;SDS011;2015;48.670;9.060;2022-07-23T05:38:33;8.77;;;7.90;;
4001;SDS011;2015;48.670;9.060;2022-07-23T05:41:05;9.20;;;8.40;;
4001;SDS011;2015;48.670;9.060;2022-07-23T05:43:37;8.67;;;8.07;;
4001;SDS011;2015;48.670;9.060;2022-07-23T05:46:09;10.90;;;10.00;;
4001;SDS011;2015;48.670;9.060;2022-07-23T05:48:41;12.37;;;11.27;;
4001;SDS011;2015;48.670;9.060;2022-07-23T05:51:13;12.00;;;10.88;;
4001;SDS011;2015;48.670;9.060;2022-07-23T05:53:45;9.80;;;9.10;;
4001;SDS011;2015;48.670;9.060;2022-07-23T05:56:17;9.83;;;9.13;;
4001;SDS011;2015;48.670;9.060;2022-07-23T05:58:50;10.00;;;9.30;;
4001;SDS011;2015;48.670;9.060;2022-07-23T06:01:21;9.90;;;9.10;;
4001;SDS011;2015;48.670;9.060;2022-07-23T06:03:53;11.10;;;10.20;;
4001;SDS011;2015;48.670;9.060;2022-07-23T06:06:25;9.20;;;8.30;;
4001;SDS011;2015;48.670;9.060;2022-07-23T06:08:57;9.90;;;9.10;;
4001;SDS011;2015;48.670;9.060;2022-07-23T06:11:29;9.57;;;8.77;;
4001;SDS011;2015;48.670;9.060;2022-07-23T06:14:01;9.60;;;8.90;;
4001;SDS011;2015;48.670;9.060;2022-07-23T06:16:34;9.93;;;9.00;;
4001;SDS011;2015;48.670;9.060;2022-07-23T06:19:05;10.30;;;9.40;;
4001;SDS011;2015;48.670;9.060;2022-07-23T06:21:37;10.17;;;9.37;;
4001;SDS011;2015;48.670;9.060;2022-07-23T06:24:18;10.10;;;9.30;;
4001;SDS011;2015;48.670;9.060;2022-07-23T06:26:50;9.03;;;8.20;;
4001;SDS011;2015;48.670;9.060;2022-07-23T06:29:22;9.10;;;8.40;;
4001;SDS011;2015;48.670;9.060;2022-07-23T06:31:53;9.43;;;8.73;;
4001;SDS011;2015;48.670;9.060;2022-07-23T06:34:25;10.43;;;9.50;;
4001;SDS011;2015;48.670;9.060;2022-07-23T06:36:57;11.23;;;10.33;;
4001;SDS011;2015;48.670;9.060;2022-07-23T06:39:29;12.10;;;10.90;;
4001;SDS011;2015;48.670;9.060;2022-07-23T06:42:01;11.50;;;10.33;;
4001;SDS011;2015;48.670;9.060;2022-07-23T06:44:33;13.10;;;12.00;;
4001;SDS011;2015;48.670;9.060;2022-07-23T06:47:05;10.70;;;9.80;;
4001;SDS011;2015;48.670;9.060;2022-07-23T06:49:37;12.07;;;10.60;;
4001;SDS011;2015;48.670;9.060;2022-07-23T06:52:08;11.03;;;10.00;;
4001;SDS011;2015;48.670;9.060;2022-07-23T06:54:40;11.30;;;10.20;;
4001;SDS011;2015;48.670;9.060;2022-07-23T06:57:12;11.65;;;10.55;;
4001;SDS011;2015;48.670;9.060;2022-07-23T06:59:44;11.47;;;10.40;;
4001;SDS011;2015;48.670;9.060;2022-07-23T07:02:16;9.67;;;8.97;;
4001;SDS011;2015;48.670;9.060;2022-07-23T07:04:48;10.13;;;9.13;;
4001;SDS011;2015;48.670;9.060;2022-07-23T07:07:21;11.13;;;10.30;;
4001;SDS011;2015;48.670;9.060;2022-07-23T07:09:52;11.20;;;9.97;;
4001;SDS011;2015;48.670;9.060;2022-07-23T07:12:24;9.67;;;9.03;;
4001;SDS011;2015;48.670;9.060;2022-07-23T07:14:56;10.80;;;9.70;;
4001;SDS011;2015;48.670;9.060;2022-07-23T07:17:28;10.37;;;9.37;;
4001;SDS011;2015;48.670;9.060;2022-07-23T07:20:00;10.60;;;9.70;;
4001;SDS011;2015;48.670;9.060;2022-07-23T07:22:32;9.82;;;8.95;;
4001;SDS011;2015;48.670;9.060;2022-07-23T07:25:04;9.37;;;8.60;;
4001;SDS011;2015;48.670;9.060;2022-07-23T07:27:37;9.90;;;8.80;;
4001;SDS011;2015;48.670;9.060;2022-07-23T07:30:10;9.53;;;8.83;;
4001;SDS011;2015;48.670;9.060;2022-07-23T07:32:44;10.93;;;9.93;;
4001;SDS011;2015;48.670;9.060;2022-07-23T07:35:31;9.83;;;9.13;;
4001;SDS011;2015;48.670;9.060;2022-07-23T07:38:03;10.10;;;9.27;;
4001;SDS011;2015;48.670;9.060;2022-07-23T07:40:35;9.43;;;8.77;;
4001;SDS011;2015;48.670;9.060;2022-07-23T07:43:07;10.77;;;9.73;;
4001;SDS011;2015;48.670;9.060;2022-07-23T07:45:38;10.00;;;9.00;;
4001;SDS011;2015;48.670;9.060;2022-07-23T07:48:10;9.90;;;9.10;;
4001;SDS011;2015;48.670;9.060;2022-07-23T07:50:42;9.60;;;8.90;;
4001;SDS011;2015;48.670;9.060;2022-07-23T07:53:14;9.20;;;8.40;;
4001;SDS011;2015;48.670;9.060;2022-07-23T07:55:46;10.57;;;9.67;;
4001;SDS011;2015;48.670;9.060;2022-07-23T07:58:22;9.20;;;8.60;;
4001;SDS011;2015;48.670;9.060;2022-07-23T08:00:54;9.27;;;8.63;;
4001;SDS011;2015;48.670;9.060;2022-07-23T08:03:26;8.18;;;7.57;;
4001;SDS011;2015;48.670;9.060;2022-07-23T08:05:58;8.93;;;8.20;;
4001;SDS011;2015;48.670;9.060;2022-07-23T08:08:30;9.20;;;8.50;;
4001;SDS011;2015;48.670;9.060;2022-07-23T08:11:02;10.17;;;9.23;;
4001;SDS011;2015;48.670;9.060;2022-07-23T08:13:34;11.07;;;10.03;;
4001;SDS011;2015;48.670;9.060;2022-07-23T08:16:06;10.27;;;9.37;;
4001;SDS011;2015;48.670;9.060;2022-07-23T08:18:38;10.40;;;9.67;;
4001;SDS011;2015;48.670;9.060;2022-07-23T08:21:11;10.77;;;9.80;;
4001;SDS011;2015;48.670;9.060;2022-07-23T08:23:42;10.03;;;9.30;;
4001;SDS011;2015;48.670;9.060;2022-07-23T08:26:14;9.93;;;8.93;;
4001;SDS011;2015;48.670;9.060;2022-07-23T08:28:46;9.40;;;8.63;;
4001;SDS011;2015;48.670;9.060;2022-07-23T08:31:18;10.20;;;9.30;;
4001;SDS011;2015;48.670;9.060;2022-07-23T08:33:50;10.10;;;9.30;;
4001;SDS011;2015;48.670;9.060;2022-07-23T08:36:23;9.03;;;8.53;;
4001;SDS011;2015;48.670;9.060;2022-07-23T08:38:55;10.00;;;9.20;;
4001;SDS011;2015;48.670;9.060;2022-07-23T08:41:27;9.50;;;8.80;;
4001;SDS011;2015;48.670;9.060;2022-07-23T08:43:58;8.83;;;8.33;;
4001;SDS011;2015;48.670;9.060;2022-07-23T08:46:32;8.43;;;7.90;;
4001;SDS011;2015;48.670;9.060;2022-07-23T08:49:10;9.30;;;8.60;;
4001;SDS011;2015;48.670;9.060;2022-07-23T08:51:43;9.77;;;8.95;;
4001;SDS011;2015;48.670;9.060;2022-07-23T08:54:15;8.68;;;8.05;;
4001;SDS011;2015;48.670;9.060;2022-07-23T08:56:48;8.70;;;7.85;;
4001;SDS011;2015;48.670;9.060;2022-07-23T08:59:19;8.65;;;8.15;;
4001;SDS011;2015;48.670;9.060;2022-07-23T09:01:51;8.50;;;7.80;;
4001;SDS011;2015;48.670;9.060;2022-07-23T09:04:23;8.18;;;7.68;;
4001;SDS011;2015;48.670;9.060;2022-07-23T09:06:57;8.38;;;7.78;;
4001;SDS011;2015;48.670;9.060;2022-07-23T09:09:29;8.55;;;7.90;;
4001;SDS011;2015;48.670;9.060;2022-07-23T09:12:05;9.35;;;8.65;;
4001;SDS011;2015;48.670;9.060;2022-07-23T09:14:43;8.77;;;8.20;;
4001;SDS011;2015;48.670;9.060;2022-07-23T09:17:19;9.73;;;8.93;;
4001;SDS011;2015;48.670;9.060;2022-07-23T09:19:52;8.55;;;8.05;;
4001;SDS011;2015;48.670;9.060;2022-07-23T09:22:46;9.32;;;8.63;;
4001;SDS011;2015;48.670;9.060;2022-07-23T09:25:20;9.55;;;8.60;;
4001;SDS011;2015;48.670;9.060;2022-07-23T09:27:55;10.43;;;9.52;;
4001;SDS011;2015;48.670;9.060;2022-07-23T09:30:33;9.30;;;8.60;;
4001;SDS011;2015;48.670;9.060;2022-07-23T09:33:09;10.23;;;9.43;;
4001;SDS011;2015;48.670;9.060;2022-07-23T09:35:45;9.07;;;8.43;;
4001;SDS011;2015;48.670;9.060;2022-07-23T09:38:18;9.52;;;8.93;;
4001;SDS011;2015;48.670;9.060;2022-07-23T09:43:39;9.82;;;9.13;;
4001;SDS011;2015;48.670;9.060;2022-07-23T09:46:18;9.35;;;8.52;;
4001;SDS011;2015;48.670;9.060;2022-07-23T09:48:52;15.20;;;13.70;;
4001;SDS011;2015;48.670;9.060;2022-07-23T09:51:25;10.25;;;9.65;;
4001;SDS011;2015;48.670;9.060;2022-07-23T09:54:19;10.18;;;9.57;;
4001;SDS011;2015;48.670;9.060;2022-07-23T09:56:57;13.52;;;10.43;;
4001;SDS011;2015;48.670;9.060;2022-07-23T09:59:32;10.25;;;9.55;;
4001;SDS011;2015;48.670;9.060;2022-07-23T10:02:10;10.70;;;9.90;;
4001;SDS011;2015;48.670;9.060;2022-07-23T10:04:43;10.30;;;9.70;;
4001;SDS011;2015;48.670;9.060;2022-07-23T10:07:17;11.35;;;10.52;;
4001;SDS011;2015;48.670;9.060;2022-07-23T10:09:50;9.85;;;9.00;;
4001;SDS011;2015;48.670;9.060;2022-07-23T10:12:24;10.98;;;10.18;;
4001;SDS011;2015;48.670;9.060;2022-07-23T10:14:56;10.77;;;10.00;;
4001;SDS011;2015;48.670;9.060;2022-07-23T10:17:28;10.30;;;9.52;;
4001;SDS011;2015;48.670;9.060;2022-07-23T10:20:01;10.55;;;9.95;;
4001;SDS011;2015;48.670;9.060;2022-07-23T10:22:38;11.52;;;10.52;;
4001;SDS011;2015;48.670;9.060;2022-07-23T10:31:49;10.20;;;9.50;;
4001;SDS011;2015;48.670;9.060;2022-07-23T10:37:42;10.07;;;9.38;;
4001;SDS011;2015;48.670;9.060;2022-07-23T10:40:21;9.77;;;9.07;;
4001;SDS011;2015;48.670;9.060;2022-07-23T10:42:53;9.90;;;9.27;;
4001;SDS011;2015;48.670;9.060;2022-07-23T10:48:21;9.27;;;8.73;;
4001;SDS011;2015;48.670;9.060;2022-07-23T10:51:07;8.45;;;7.95;;
4001;SDS011;2015;48.670;9.060;2022-07-23T10:59:20;9.43;;;8.82;;
4001;SDS011;2015;48.670;9.060;2022-07-23T11:01:53;9.40;;;8.43;;
4001;SDS011;2015;48.670;9.060;2022-07-23T11:07:22;9.00;;;8.20;;
4001;SDS011;2015;48.670;9.060;2022-07-23T11:09:54;8.88;;;8.35;;
4001;SDS011;2015;48.670;9.060;2022-07-23T11:20:25;8.70;;;8.20;;
4001;SDS011;2015;48.670;9.060;2022-07-23T11:22:58;8.82;;;8.23;;
4001;SDS011;2015;48.670;9.060;2022-07-23T11:25:32;9.68;;;9.00;;
4001;SDS011;2015;48.670;9.060;2022-07-23T11:28:13;8.98;;;8.35;;
4001;SDS011;2015;48.670;9.060;2022-07-23T11:30:47;8.43;;;7.90;;
4001;SDS011;2015;48.670;9.060;2022-07-23T11:33:20;8.60;;;8.10;;
4001;SDS011;2015;48.670;9.060;2022-07-23T11:36:02;9.57;;;8.98;;
4001;SDS011;2015;48.670;9.060;2022-07-23T11:38:34;8.68;;;8.02;;
4001;SDS011;2015;48.670;9.060;2022-07-23T11:41:09;9.73;;;9.15;;
4001;SDS011;2015;48.670;9.060;2022-07-23T11:43:41;9.13;;;8.50;;
4001;SDS011;2015;48.670;9.060;2022-07-23T11:46:13;9.55;;;8.75;;
4001;SDS011;2015;48.670;9.060;2022-07-23T11:48:45;8.10;;;7.65;;
4001;SDS011;2015;48.670;9.060;2022-07-23T11:51:26;10.20;;;9.30;;
4001;SDS011;2015;48.670;9.060;2022-07-23T11:54:05;11.13;;;10.20;;
4001;SDS011;2015;48.670;9.060;2022-07-23T11:56:37;10.02;;;9.15;;
4001;SDS011;2015;48.670;9.060;2022-07-23T11:59:27;9.98;;;9.23;;
4001;SDS011;2015;48.670;9.060;2022-07-23T12:02:03;11.00;;;10.10;;
4001;SDS011;2015;48.670;9.060;2022-07-23T12:04:43;9.82;;;8.68;;
4001;SDS011;2015;48.670;9.060;2022-07-23T12:07:33;10.90;;;10.00;;
4001;SDS011;2015;48.670;9.060;2022-07-23T12:10:15;10.68;;;9.93;;
4001;SDS011;2015;48.670;9.060;2022-07-23T12:13:15;10.05;;;9.15;;
4001;SDS011;2015;48.670;9.060;2022-07-23T12:15:52;10.25;;;9.55;;
4001;SDS011;2015;48.670;9.060;2022-07-23T12:18:25;11.27;;;10.30;;
4001;SDS011;2015;48.670;9.060;2022-07-23T12:21:03;10.20;;;9.32;;
4001;SDS011;2015;48.670;9.060;2022-07-23T12:23:36;9.27;;;8.65;;
4001;SDS011;2015;48.670;9.060;2022-07-23T12:26:09;9.45;;;8.85;;
4001;SDS011;2015;48.670;9.060;2022-07-23T12:28:42;10.50;;;9.68;;
4001;SDS011;2015;48.670;9.060;2022-07-23T12:31:26;9.25;;;8.68;;
4001;SDS011;2015;48.670;9.060;2022-07-23T12:33:58;9.73;;;8.93;;
4001;SDS011;2015;48.670;9.060;2022-07-23T12:36:37;10.52;;;9.70;;
4001;SDS011;2015;48.670;9.060;2022-07-23T12:39:20;10.00;;;9.20;;
4001;SDS011;2015;48.670;9.060;2022-07-23T12:42:11;9.50;;;8.82;;
4001;SDS011;2015;48.670;9.060;2022-07-23T12:45:02;10.70;;;10.00;;
4001;SDS011;2015;48.670;9.060;2022-07-23T12:50:39;10.02;;;9.32;;
4001;SDS011;2015;48.670;9.060;2022-07-23T12:55:48;11.82;;;10.90;;
4001;SDS011;2015;48.670;9.060;2022-07-23T12:58:45;10.63;;;9.77;;
4001;SDS011;2015;48.670;9.060;2022-07-23T13:04:02;10.27;;;9.48;;
4001;SDS011;2015;48.670;9.060;2022-07-23T13:06:56;9.15;;;8.45;;
4001;SDS011;2015;48.670;9.060;2022-07-23T13:09:31;10.43;;;9.63;;
4001;SDS011;2015;48.670;9.060;2022-07-23T13:12:12;11.50;;;9.80;;
4001;SDS011;2015;48.670;9.060;2022-07-23T13:14:44;9.63;;;9.00;;
4001;SDS011;2015;48.670;9.060;2022-07-23T13:17:16;11.73;;;10.80;;
4001;SDS011;2015;48.670;9.060;2022-07-23T13:19:50;10.00;;;9.20;;
4001;SDS011;2015;48.670;9.060;2022-07-23T13:22:22;9.27;;;8.60;;
4001;SDS011;2015;48.670;9.060;2022-07-23T13:24:54;11.90;;;10.93;;
4001;SDS011;2015;48.670;9.060;2022-07-23T13:27:26;11.25;;;10.35;;
4001;SDS011;2015;48.670;9.060;2022-07-23T13:29:58;9.97;;;9.07;;
4001;SDS011;2015;48.670;9.060;2022-07-23T13:32:30;10.50;;;9.53;;
4001;SDS011;2015;48.670;9.060;2022-07-23T13:35:02;9.83;;;8.93;;
4001;SDS011;2015;48.670;9.060;2022-07-23T13:37:35;10.38;;;9.57;;
4001;SDS011;2015;48.670;9.060;2022-07-23T13:40:07;10.07;;;9.37;;
4001;SDS011;2015;48.670;9.060;2022-07-23T13:42:48;10.07;;;9.20;;
4001;SDS011;2015;48.670;9.060;2022-07-23T13:45:20;11.03;;;10.20;;
4001;SDS011;2015;48.670;9.060;2022-07-23T13:47:52;13.67;;;11.43;;
4001;SDS011;2015;48.670;9.060;2022-07-23T13:50:24;11.13;;;10.10;;
4001;SDS011;2015;48.670;9.060;2022-07-23T13:53:04;11.10;;;10.20;;
4001;SDS011;2015;48.670;9.060;2022-07-23T13:55:38;11.53;;;10.50;;
4001;SDS011;2015;48.670;9.060;2022-07-23T13:58:18;10.97;;;10.13;;
4001;SDS011;2015;48.670;9.060;2022-07-23T14:00:54;10.43;;;9.52;;
4001;SDS011;2015;48.670;9.060;2022-07-23T14:03:26;9.50;;;8.90;;
4001;SDS011;2015;48.670;9.060;2022-07-23T14:05:58;8.90;;;8.30;;
4001;SDS011;2015;48.670;9.060;2022-07-23T14:08:30;11.33;;;10.40;;
4001;SDS011;2015;48.670;9.060;2022-07-23T14:11:02;10.07;;;9.20;;
4001;SDS011;2015;48.670;9.060;2022-07-23T14:13:38;10.53;;;9.63;;
4001;SDS011;2015;48.670;9.060;2022-07-23T14:16:11;10.27;;;9.60;;
4001;SDS011;2015;48.670;9.060;2022-07-23T14:18:42;11.37;;;10.30;;
4001;SDS011;2015;48.670;9.060;2022-07-23T14:21:14;10.07;;;9.30;;
4001;SDS011;2015;48.670;9.060;2022-07-23T14:23:46;9.90;;;9.20;;
4001;SDS011;2015;48.670;9.060;2022-07-23T14:26:19;10.67;;;9.70;;
4001;SDS011;2015;48.670;9.060;2022-07-23T14:28:51;10.20;;;9.50;;
4001;SDS011;2015;48.670;9.060;2022-07-23T14:31:22;10.45;;;9.63;;
4001;SDS011;2015;48.670;9.060;2022-07-23T14:33:55;11.68;;;10.68;;
4001;SDS011;2015;48.670;9.060;2022-07-23T14:36:26;9.90;;;9.00;;
4001;SDS011;2015;48.670;9.060;2022-07-23T14:38:58;11.23;;;10.43;;
4001;SDS011;2015;48.670;9.060;2022-07-23T14:41:33;10.87;;;9.80;;
4001;SDS011;2015;48.670;9.060;2022-07-23T14:44:05;10.70;;;9.70;;
4001;SDS011;2015;48.670;9.060;2022-07-23T14:46:37;11.20;;;9.83;;
4001;SDS011;2015;48.670;9.060;2022-07-23T14:49:09;11.07;;;10.18;;
4001;SDS011;2015;48.670;9.060;2022-07-23T14:51:41;10.83;;;10.13;;
4001;SDS011;2015;48.670;9.060;2022-07-23T14:54:14;12.20;;;11.30;;
4001;SDS011;2015;48.670;9.060;2022-07-23T14:56:46;10.47;;;9.70;;
4001;SDS011;2015;48.670;9.060;2022-07-23T14:59:18;10.90;;;10.10;;
4001;SDS011;2015;48.670;9.060;2022-07-23T15:01:52;9.70;;;8.90;;
4001;SDS011;2015;48.670;9.060;2022-07-23T15:04:24;10.50;;;9.67;;
4001;SDS011;2015;48.670;9.060;2022-07-23T15:07:13;10.23;;;9.50;;
4001;SDS011;2015;48.670;9.060;2022-07-23T15:09:44;11.30;;;10.40;;
4001;SDS011;2015;48.670;9.060;2022-07-23T15:12:18;10.70;;;9.80;;
4001;SDS011;2015;48.670;9.060;2022-07-23T15:14:52;11.47;;;10.47;;
4001;SDS011;2015;48.670;9.060;2022-07-23T15:17:24;10.63;;;9.83;;
4001;SDS011;2015;48.670;9.060;2022-07-23T15:19:57;11.17;;;10.27;;
4001;SDS011;2015;48.670;9.060;2022-07-23T15:22:28;11.03;;;10.33;;
4001;SDS011;2015;48.670;9.060;2022-07-23T15:25:00;9.53;;;8.83;;
4001;SDS011;2015;48.670;9.060;2022-07-23T15:27:32;11.20;;;10.30;;
4001;SDS011;2015;48.670;9.060;2022-07-23T15:30:05;12.40;;;11.40;;
4001;SDS011;2015;48.670;9.060;2022-07-23T15:32:38;12.57;;;11.50;;
4001;SDS011;2015;48.670;9.060;2022-07-23T15:35:10;11.63;;;10.70;;
4001;SDS011;2015;48.670;9.060;2022-07-23T15:37:42;11.07;;;10.00;;
4001;SDS011;2015;48.670;9.060;2022-07-23T15:40:16;10.03;;;9.23;;
4001;SDS011;2015;48.670;9.060;2022-07-23T15:42:49;10.60;;;9.90;;
4001;SDS011;2015;48.670;9.060;2022-07-23T15:45:20;11.10;;;10.20;;
4001;SDS011;2015;48.670;9.060;2022-07-23T15:47:55;10.85;;;9.85;;
4001;SDS011;2015;48.670;9.060;2022-07-23T15:50:28;10.63;;;9.83;;
4001;SDS011;2015;48.670;9.060;2022-07-23T15:52:59;11.83;;;10.80;;
4001;SDS011;2015;48.670;9.060;2022-07-23T15:55:32;11.03;;;10.20;;
4001;SDS011;2015;48.670;9.060;2022-07-23T15:58:06;11.33;;;10.43;;
4001;SDS011;2015;48.670;9.060;2022-07-23T16:00:39;10.60;;;9.80;;
4001;SDS011;2015;48.670;9.060;2022-07-23T16:03:16;9.87;;;9.17;;
4001;SDS011;2015;48.670;9.060;2022-07-23T16:05:48;12.07;;;11.07;;
4001;SDS011;2015;48.670;9.060;2022-07-23T16:08:20;12.10;;;11.03;;
4001;SDS011;2015;48.670;9.060;2022-07-23T16:10:52;11.00;;;10.10;;
4001;SDS011;2015;48.670;9.060;2022-07-23T16:13:25;10.93;;;9.97;;
4001;SDS011;2015;48.670;9.060;2022-07-23T16:15:57;10.77;;;9.73;;
4001;SDS011;2015;48.670;9.060;2022-07-23T16:18:29;11.27;;;10.40;;
4001;SDS011;2015;48.670;9.060;2022-07-23T16:21:01;11.37;;;10.23;;
4001;SDS011;2015;48.670;9.060;2022-07-23T16:23:42;10.30;;;9.60;;
4001;SDS011;2015;48.670;9.060;2022-07-23T16:26:14;10.30;;;9.47;;